createdAt,value
2022-11-22T00:00:31.408Z,100.00
2022-11-22T00:04:33.418Z,100.00
2022-11-22T00:08:35.489Z,100.00
2022-11-22T00:12:38.589Z,100.00
2022-11-22T00:16:40.639Z,100.00
2022-11-22T00:20:42.791Z,100.00
2022-11-22T00:24:46.228Z,100.00
2022-11-22T00:28:48.263Z,100.00
2022-11-22T00:32:50.365Z,100.00
2022-11-22T00:36:52.361Z,100.00
2022-11-22T00:40:54.369Z,100.00
2022-11-22T00:44:56.384Z,100.00
2022-11-22T00:48:58.407Z,100.00
2022-11-22T00:53:00.412Z,100.00
2022-11-22T00:57:02.455Z,100.00
2022-11-22T01:01:04.589Z,100.00
2022-11-22T01:05:06.864Z,100.00
2022-11-22T01:09:08.860Z,100.00
2022-11-22T01:13:12.246Z,100.00
2022-11-22T01:17:14.535Z,100.00
2022-11-22T01:21:16.573Z,100.00
2022-11-22T01:25:18.615Z,100.00
2022-11-22T01:29:20.633Z,100.00
2022-11-22T01:33:23.085Z,100.00
2022-11-22T01:37:25.107Z,100.00
2022-11-22T01:41:27.214Z,100.00
2022-11-22T01:45:29.152Z,100.00
2022-11-22T01:49:35.874Z,100.00
2022-11-22T01:53:39.776Z,100.00
2022-11-22T01:57:44.032Z,100.00
2022-11-22T02:01:46.379Z,100.00
2022-11-22T02:05:50.409Z,100.00
2022-11-22T02:09:53.359Z,100.00
2022-11-22T02:13:56.199Z,100.00
2022-11-22T02:17:58.189Z,100.00
2022-11-22T02:22:11.157Z,100.00
2022-11-22T02:26:14.654Z,100.00
2022-11-22T02:30:17.396Z,100.00
2022-11-22T02:34:19.547Z,100.00
2022-11-22T02:38:24.844Z,100.00
2022-11-22T02:42:30.243Z,100.00
2022-11-22T02:46:32.271Z,100.00
2022-11-22T02:50:34.463Z,100.00
2022-11-22T02:54:36.498Z,100.00
2022-11-22T02:58:38.766Z,100.00
2022-11-22T03:02:40.773Z,100.00
2022-11-22T03:06:42.994Z,100.00
2022-11-22T03:10:45.031Z,100.00
2022-11-22T03:14:47.074Z,100.00
2022-11-22T03:18:49.073Z,100.00
2022-11-22T03:22:51.152Z,100.00
2022-11-22T03:26:53.158Z,100.00
2022-11-22T03:30:55.158Z,100.00
2022-11-22T03:34:57.188Z,100.00
2022-11-22T03:38:59.343Z,100.00
2022-11-22T03:43:01.874Z,100.00
2022-11-22T03:47:03.921Z,100.00
2022-11-22T03:51:07.085Z,100.00
2022-11-22T03:55:09.285Z,100.00
2022-11-22T03:59:11.330Z,100.00
2022-11-22T04:03:13.335Z,100.00
2022-11-22T04:07:15.405Z,100.00
2022-11-22T04:11:17.497Z,100.00
2022-11-22T04:15:19.566Z,100.00
2022-11-22T04:19:21.568Z,100.00
2022-11-22T04:23:30.688Z,100.00
2022-11-22T04:27:35.691Z,100.00
2022-11-22T04:31:56.906Z,100.00
2022-11-22T04:35:59.133Z,100.00
2022-11-22T04:40:01.103Z,100.00
2022-11-22T04:44:21.744Z,100.00
2022-11-22T04:48:23.719Z,100.00
2022-11-22T04:52:44.383Z,100.00
2022-11-22T04:56:46.359Z,100.00
2022-11-22T05:00:49.258Z,100.00
2022-11-22T05:04:51.232Z,100.00
2022-11-22T05:08:53.225Z,100.00
2022-11-22T05:12:56.096Z,100.00
2022-11-22T05:16:58.147Z,100.00
2022-11-22T05:21:11.754Z,100.00
2022-11-22T05:25:13.879Z,100.00
2022-11-22T05:29:15.906Z,100.00
2022-11-22T05:33:17.945Z,100.00
2022-11-22T05:37:19.934Z,100.00
2022-11-22T05:41:21.995Z,100.00
2022-11-22T05:45:24.054Z,100.00
2022-11-22T05:49:26.063Z,100.00
2022-11-22T05:53:28.077Z,100.00
2022-11-22T05:57:32.490Z,100.00
2022-11-22T06:01:34.483Z,100.00
2022-11-22T06:05:36.465Z,100.00
2022-11-22T06:09:38.488Z,100.00
2022-11-22T06:13:43.938Z,100.00
2022-11-22T06:17:45.984Z,100.00
2022-11-22T06:21:47.990Z,100.00
2022-11-22T06:25:57.193Z,100.00
2022-11-22T06:29:59.213Z,100.00
2022-11-22T06:34:01.247Z,100.00
2022-11-22T06:38:03.240Z,100.00
2022-11-22T06:42:05.310Z,100.00
2022-11-22T06:46:08.334Z,100.00
2022-11-22T06:50:10.325Z,100.00
2022-11-22T06:54:12.526Z,100.00
2022-11-22T06:58:14.518Z,100.00
2022-11-22T07:02:16.584Z,100.00
2022-11-22T07:06:19.500Z,100.00
2022-11-22T07:10:21.638Z,100.00
2022-11-22T07:14:23.646Z,100.00
2022-11-22T07:18:25.763Z,100.00
2022-11-22T07:22:28.580Z,100.00
2022-11-22T07:26:30.584Z,100.00
2022-11-22T07:30:32.587Z,100.00
2022-11-22T07:34:34.632Z,100.00
2022-11-22T07:38:37.034Z,100.00
2022-11-22T07:42:39.014Z,100.00
2022-11-22T07:46:41.047Z,100.00
2022-11-22T07:50:43.481Z,100.00
2022-11-22T07:54:45.511Z,100.00
2022-11-22T07:58:47.571Z,100.00
2022-11-22T08:02:49.582Z,100.00
2022-11-22T08:06:51.671Z,100.00
2022-11-22T08:10:53.803Z,100.00
2022-11-22T08:14:55.804Z,100.00
2022-11-22T08:18:57.993Z,100.00
2022-11-22T08:23:00.014Z,100.00
2022-11-22T08:27:02.042Z,100.00
2022-11-22T08:31:07.138Z,100.00
2022-11-22T08:35:09.414Z,100.00
2022-11-22T08:39:11.415Z,100.00
2022-11-22T08:43:13.408Z,100.00
2022-11-22T08:47:15.413Z,100.00
2022-11-22T08:51:17.448Z,100.00
2022-11-22T08:55:19.479Z,100.00
2022-11-22T08:59:21.591Z,100.00
2022-11-22T09:03:23.791Z,100.00
2022-11-22T09:11:47.745Z,100.00
2022-11-22T09:15:49.747Z,100.00
2022-11-22T09:19:51.778Z,100.00
2022-11-22T09:23:54.577Z,100.00
2022-11-22T09:28:00.562Z,100.00
2022-11-22T09:32:03.382Z,99.47
2022-11-22T09:36:11.815Z,99.13
2022-11-22T09:40:15.330Z,98.44
2022-11-22T09:45:03.617Z,95.34
2022-11-22T09:49:29.285Z,93.04
2022-11-22T09:53:38.120Z,91.90
2022-11-22T09:57:47.086Z,88.73
2022-11-22T10:02:18.045Z,88.67
2022-11-22T10:06:27.359Z,88.73
2022-11-22T10:10:38.673Z,88.48
2022-11-22T10:15:02.597Z,88.81
2022-11-22T10:19:21.985Z,89.68
2022-11-22T10:23:25.805Z,90.61
2022-11-22T10:27:32.436Z,91.38
2022-11-22T10:31:45.918Z,92.34
2022-11-22T10:35:54.090Z,92.68
2022-11-22T10:40:11.734Z,93.91
2022-11-22T10:44:32.492Z,94.03
2022-11-22T10:48:57.891Z,93.92
2022-11-22T10:53:10.155Z,91.73
2022-11-22T10:57:30.999Z,91.16
2022-11-22T11:01:44.558Z,90.30
2022-11-22T11:10:37.257Z,91.80
2022-11-22T11:14:48.459Z,91.77
2022-11-22T11:18:57.887Z,91.98
2022-11-22T11:23:14.114Z,92.41
2022-11-22T11:27:19.710Z,91.16
2022-11-22T11:31:22.010Z,90.75
2022-11-22T11:35:29.062Z,90.81
2022-11-22T11:39:33.670Z,89.74
2022-11-22T11:43:42.276Z,90.02
2022-11-22T11:47:44.308Z,89.23
2022-11-22T11:51:48.872Z,88.75
2022-11-22T11:55:51.125Z,87.74
2022-11-22T11:59:55.537Z,88.03
2022-11-22T12:04:02.005Z,88.90
2022-11-22T12:08:28.736Z,89.20
2022-11-22T12:12:51.318Z,89.12
2022-11-22T12:16:58.678Z,89.89
2022-11-22T12:21:00.721Z,90.02
2022-11-22T12:25:32.466Z,89.13
2022-11-22T12:29:38.663Z,88.76
2022-11-22T12:33:43.167Z,88.16
2022-11-22T12:38:11.307Z,87.41
2022-11-22T12:42:28.094Z,88.21
2022-11-22T12:46:44.424Z,88.62
2022-11-22T12:50:53.937Z,88.38
2022-11-22T12:55:02.339Z,88.65
2022-11-22T12:59:10.370Z,89.32
2022-11-22T13:03:17.901Z,89.03
2022-11-22T13:07:52.180Z,89.47
2022-11-22T13:12:03.730Z,89.82
2022-11-22T13:16:13.084Z,89.50
2022-11-22T13:20:20.099Z,89.85
2022-11-22T13:24:31.271Z,89.29
2022-11-22T13:28:36.244Z,90.39
2022-11-22T13:32:42.851Z,91.02
2022-11-22T13:36:47.631Z,91.91
2022-11-22T13:40:51.181Z,91.74
2022-11-22T13:44:56.277Z,91.84
2022-11-22T13:49:14.399Z,92.34
2022-11-22T13:53:19.391Z,93.21
2022-11-22T13:57:38.173Z,94.62
2022-11-22T14:01:40.147Z,95.84
2022-11-22T14:05:47.998Z,96.00
2022-11-22T14:09:53.115Z,96.10
2022-11-22T14:14:13.403Z,96.36
2022-11-22T14:18:30.726Z,97.12
2022-11-22T14:22:45.559Z,97.75
2022-11-22T14:27:20.473Z,97.48
2022-11-22T14:31:29.347Z,97.25
2022-11-22T14:35:36.949Z,96.85
2022-11-22T14:39:44.759Z,96.95
2022-11-22T14:43:49.893Z,97.89
2022-11-22T14:47:56.516Z,97.87
2022-11-22T14:51:59.280Z,98.50
2022-11-22T14:56:17.156Z,99.18
2022-11-22T15:00:21.221Z,99.66
2022-11-22T15:09:10.289Z,100.00
2022-11-22T15:09:45.123Z,100.00
2022-11-22T15:14:31.770Z,100.00
2022-11-22T15:58:45.914Z,100.00
2022-11-22T16:02:50.229Z,100.00
2022-11-22T16:06:52.768Z,100.00
2022-11-22T16:10:54.863Z,100.00
2022-11-22T16:14:56.863Z,100.00
2022-11-22T16:19:21.641Z,100.00
2022-11-22T16:23:33.201Z,100.00
2022-11-22T16:27:35.448Z,100.00
2022-11-22T16:31:38.400Z,100.00
2022-11-22T16:35:40.376Z,100.00
2022-11-22T16:39:42.349Z,100.00
2022-11-22T16:43:44.886Z,100.00
2022-11-22T16:47:54.608Z,100.00
2022-11-22T16:52:11.851Z,100.00
2022-11-22T16:56:25.114Z,100.00
2022-11-22T17:00:27.325Z,100.00
2022-11-22T17:04:30.740Z,100.00
2022-11-22T17:08:32.745Z,100.00
2022-11-22T17:12:35.074Z,100.00
2022-11-22T17:16:37.306Z,100.00
2022-11-22T17:20:39.905Z,100.00
2022-11-22T17:24:42.432Z,100.00
2022-11-22T17:28:44.463Z,100.00
2022-11-22T17:32:46.490Z,100.00
2022-11-22T17:36:48.485Z,100.00
2022-11-22T17:40:58.490Z,100.00
2022-11-22T17:45:00.478Z,100.00
2022-11-22T17:49:02.725Z,100.00
2022-11-22T17:53:05.224Z,100.00
2022-11-22T17:57:07.324Z,100.00
2022-11-22T18:01:14.858Z,100.00
2022-11-22T18:05:16.881Z,100.00
2022-11-22T18:09:18.861Z,100.00
2022-11-22T18:13:22.195Z,100.00
2022-11-22T18:17:24.299Z,100.00
2022-11-22T18:21:31.836Z,100.00
2022-11-22T18:25:36.554Z,100.00
2022-11-22T18:29:53.395Z,100.00
2022-11-22T18:33:55.558Z,100.00
2022-11-22T18:37:57.665Z,100.00
2022-11-22T18:41:59.823Z,100.00
2022-11-22T18:46:03.993Z,100.00
2022-11-22T18:50:12.184Z,100.00
2022-11-22T18:54:14.532Z,100.00
2022-11-22T18:58:16.532Z,100.00
2022-11-22T19:02:19.927Z,100.00
2022-11-22T19:06:23.182Z,100.00
2022-11-22T19:10:25.407Z,100.00
2022-11-22T19:14:30.635Z,100.00
2022-11-22T19:18:41.313Z,100.00
2022-11-22T19:22:44.983Z,100.00
2022-11-22T19:26:46.965Z,100.00
2022-11-22T19:30:49.172Z,100.00
2022-11-22T19:34:51.344Z,100.00
2022-11-22T19:38:53.400Z,100.00
2022-11-22T19:42:55.409Z,100.00
2022-11-22T19:46:57.435Z,100.00
2022-11-22T19:51:05.620Z,100.00
2022-11-22T19:55:07.977Z,100.00
2022-11-22T19:59:15.517Z,100.00
2022-11-22T20:03:17.528Z,100.00
2022-11-22T20:07:19.544Z,100.00
2022-11-22T20:11:21.640Z,100.00
2022-11-22T20:15:23.777Z,100.00
2022-11-22T20:19:28.618Z,100.00
2022-11-22T20:23:36.468Z,100.00
2022-11-22T20:27:38.472Z,100.00
2022-11-22T20:31:41.224Z,100.00
2022-11-22T20:35:43.281Z,100.00
2022-11-22T20:39:45.280Z,100.00
2022-11-22T20:43:49.356Z,100.00
2022-11-22T20:47:51.377Z,100.00
2022-11-22T20:51:53.768Z,100.00
2022-11-22T20:55:56.546Z,100.00
2022-11-22T20:59:58.619Z,100.00
2022-11-22T21:04:00.700Z,100.00
2022-11-22T21:08:05.387Z,100.00
2022-11-22T21:12:07.561Z,100.00
2022-11-22T21:16:22.672Z,100.00
2022-11-22T21:20:25.811Z,100.00
2022-11-22T21:24:28.185Z,100.00
2022-11-22T21:28:36.143Z,100.00
2022-11-22T21:32:38.118Z,100.00
2022-11-22T21:36:40.171Z,100.00
2022-11-22T21:40:49.995Z,100.00
2022-11-22T21:44:52.528Z,100.00
2022-11-22T21:48:55.783Z,100.00
2022-11-22T21:52:58.684Z,100.00
2022-11-22T21:57:02.939Z,100.00
2022-11-22T22:01:10.926Z,100.00
2022-11-22T22:05:17.598Z,100.00
2022-11-22T22:09:19.713Z,100.00
2022-11-22T22:13:21.721Z,100.00
2022-11-22T22:17:23.723Z,100.00
2022-11-22T22:21:26.019Z,100.00
2022-11-22T22:25:28.008Z,100.00
2022-11-22T22:29:30.445Z,100.00
2022-11-22T22:33:33.906Z,100.00
2022-11-22T22:37:35.999Z,100.00
2022-11-22T22:41:38.055Z,100.00
2022-11-22T22:45:40.050Z,100.00
2022-11-22T22:49:42.068Z,100.00
2022-11-22T22:53:45.308Z,100.00
2022-11-22T22:57:47.306Z,100.00
2022-11-22T23:01:49.281Z,100.00
2022-11-22T23:05:51.381Z,100.00
2022-11-22T23:09:53.406Z,100.00
2022-11-22T23:13:55.412Z,100.00
2022-11-22T23:17:57.443Z,100.00
2022-11-22T23:21:59.607Z,100.00
2022-11-22T23:26:07.130Z,100.00
2022-11-22T23:30:09.701Z,100.00
2022-11-22T23:34:11.864Z,100.00
2022-11-22T23:38:13.913Z,100.00
2022-11-22T23:42:15.916Z,100.00
2022-11-22T23:46:18.053Z,100.00
2022-11-22T23:50:20.115Z,100.00
2022-11-22T23:54:22.127Z,100.00
2022-11-22T23:58:24.135Z,100.00
